Othello, WA

1:14 AM PDT en Agosto 21, 2014 (GMT -0700)
N Royal Lake | Change Station
CLOSE
Current Station
Estación meteorológica personal
Location: Othello, WA
Altura: 883 ft
Estaciones meteorológicas cercanas

Alt 883 ft 46.88 °N, 119.37 °W | Updated 15 minutes ago

Clear
Despejado
59.7 ° F
Sensación térmica 59.7 ° F
N
0.0
Viento Variable Viento desde OSO

Hoy
Alta -- | Baja -- ° F
--% Posibilidad de precipitaciones
Ayer
Alta -- | Baja -- ° F
Precip. -- pul
6:03 AM 7:57 PM
Creciente menguante, 16% visible
Presión 29.82 pul
Visibilidad 10.0 Millas
Nubes Despejado
Punto de rocío 52 ° F
Humedad 76%
Precipitaciones 0.00 pul
Espesor de la nieve No disponible.
UV 0 de una escala de 12
Polen 4.20 de una escala de 12
Calidad del aire No disponible.
Flu Activity No disponible.
METAR KMWH 210752Z AUTO 20003KT 10SM CLR 19/11 A2984 RMK AO2 SLP097 T01940106 403110178

More Conditions Fewer Conditions

Presión 29.82 pul
Visibilidad 10.0 Millas
Nubes Despejado
Punto de rocío 52 ° F
Humedad 76%
Precipitaciones 0.00 pul
Espesor de la nieve No disponible.
UV 0 de una escala de 12
Polen 4.20 de una escala de 12
Calidad del aire No disponible.
Flu Activity No disponible.
METAR KMWH 210752Z AUTO 20003KT 10SM CLR 19/11 A2984 RMK AO2 SLP097 T01940106 403110178

More Conditions Fewer Conditions

10-Day Weather Forecast

Almanac

Astronomía

Aug. 21, 2014 Salida Puesta
Hora real 6:03 AM PDT 7:57 PM PDT
Crepúsculo civil 5:30 AM PDT 8:29 PM PDT
Crepúsculo náutico 4:50 AM PDT 9:09 PM PDT
Crepúsculo astronómico 4:06 AM PDT 9:53 PM PDT
Luna 2:31 AM PDT 5:34 PM PDT
Horas de luz 14h 58m
Horas de luz
13h 53m
Tomorrow will be 3m 5s shorter.
Creciente menguante, 16% of the Moon is Illuminated
Hoy
Creciente menguante
Ago 25
Nueva
Sep 2
Cuarto creciente
Sep 8
Luna llena
Sep 15
Cuarto menguante

Extremos de hoy

Máximos del estado Bajos del estado

Community

WunderPhotos

Upload Photos

1,745,867 ¡fotos cargadas!

Nearby

Grosos de nieve

Estación Profundido Altura
Trough 1 in 5300 ft
Grouse Camp 0 in 5380 ft
Blewett Pass 0 in 4270 ft
Green Lake 0 in 6000 ft
Lost Horse 0 in 5000 ft

Actividad de terremotos

Ciudad Distance Mag. Tiempo y dato
No hay informes recientes de la actividad sísmica.
Magnitud mínima muestra es 2,5.

Temperaturas de aguas costeras

Lugar Temperatura
Sin partes meteorológicos de las estaciones

Estaciones meteorológicas cercanas